createdAt,value
2023-03-04T00:01:33.020Z,52.17
2023-03-04T00:03:58.062Z,51.97
2023-03-04T00:06:22.494Z,49.55
2023-03-04T00:08:46.870Z,51.65
2023-03-04T00:11:11.361Z,52.33
2023-03-04T00:13:35.718Z,51.25
2023-03-04T00:16:04.009Z,51.90
2023-03-04T00:18:28.288Z,52.20
2023-03-04T00:20:52.869Z,53.10
2023-03-04T00:23:17.489Z,54.38
2023-03-04T00:25:43.571Z,53.45
2023-03-04T00:28:08.117Z,52.05
2023-03-04T00:30:32.786Z,51.67
2023-03-04T00:32:58.728Z,54.08
2023-03-04T00:35:23.337Z,51.25
2023-03-04T00:37:47.831Z,52.78
2023-03-04T00:40:15.109Z,50.10
2023-03-04T00:42:39.529Z,51.10
2023-03-04T00:45:04.069Z,50.88
2023-03-04T00:47:29.830Z,51.55
2023-03-04T00:49:55.633Z,52.65
2023-03-04T00:52:20.125Z,53.25
2023-03-04T00:54:44.647Z,50.80
2023-03-04T00:57:09.560Z,52.83
2023-03-04T00:59:34.296Z,50.72
2023-03-04T01:01:58.702Z,51.17
2023-03-04T01:04:23.172Z,53.25
2023-03-04T01:06:49.356Z,51.05
2023-03-04T01:09:14.413Z,52.42
2023-03-04T01:11:38.898Z,50.67
2023-03-04T01:14:03.322Z,50.22
2023-03-04T01:16:28.305Z,49.58
2023-03-04T01:18:52.892Z,50.50
2023-03-04T01:21:18.423Z,52.38
2023-03-04T01:23:44.730Z,50.08
2023-03-04T01:26:09.069Z,53.67
2023-03-04T01:28:35.896Z,53.88
2023-03-04T01:31:00.268Z,54.78
2023-03-04T01:33:24.927Z,54.05
2023-03-04T01:35:49.409Z,51.08
2023-03-04T01:38:14.427Z,51.58
2023-03-04T01:40:40.848Z,52.33
2023-03-04T01:43:05.470Z,50.00
2023-03-04T01:45:30.360Z,51.20
2023-03-04T01:47:54.757Z,50.72
2023-03-04T01:50:23.155Z,52.67
2023-03-04T01:52:47.624Z,51.55
2023-03-04T01:55:17.668Z,51.78
2023-03-04T01:57:43.524Z,50.85
2023-03-04T02:00:37.384Z,49.90
2023-03-04T02:03:07.245Z,52.05
2023-03-04T02:05:32.028Z,50.88
2023-03-04T02:07:57.330Z,50.85
2023-03-04T02:10:22.255Z,50.38
2023-03-04T02:12:48.418Z,51.65
2023-03-04T02:15:13.138Z,53.05
2023-03-04T02:17:37.538Z,51.47
2023-03-04T02:20:09.138Z,52.67
2023-03-04T02:22:40.177Z,50.42
2023-03-04T02:25:10.485Z,51.97
2023-03-04T02:27:36.534Z,54.13
2023-03-04T02:30:00.899Z,51.50
2023-03-04T02:32:27.412Z,53.95
2023-03-04T02:34:52.700Z,51.38
2023-03-04T02:37:19.720Z,51.88
2023-03-04T02:39:47.556Z,51.97
2023-03-04T02:42:12.765Z,51.05
2023-03-04T02:44:39.982Z,52.42
2023-03-04T02:47:06.615Z,52.13
2023-03-04T02:49:33.775Z,49.38
2023-03-04T02:52:02.699Z,50.72
2023-03-04T02:54:27.305Z,50.57
2023-03-04T02:56:54.700Z,51.35
2023-03-04T02:59:22.460Z,49.75
2023-03-04T03:01:50.202Z,51.22
2023-03-04T03:04:15.371Z,49.35
2023-03-04T03:06:42.259Z,51.42
2023-03-04T03:09:07.450Z,51.60
2023-03-04T03:11:32.034Z,49.88
2023-03-04T03:13:56.385Z,50.13
2023-03-04T03:16:23.155Z,48.33
2023-03-04T03:18:49.561Z,50.45
2023-03-04T03:21:13.980Z,49.88
2023-03-04T03:23:38.706Z,52.22
2023-03-04T03:26:04.858Z,53.53
2023-03-04T03:28:29.594Z,50.95
2023-03-04T03:30:53.914Z,51.65
2023-03-04T03:33:18.410Z,49.22
2023-03-04T03:35:44.775Z,52.38
2023-03-04T03:38:09.536Z,50.65
2023-03-04T03:40:34.217Z,50.05
2023-03-04T03:42:58.879Z,50.78
2023-03-04T03:45:23.562Z,51.80
2023-03-04T03:47:48.312Z,53.28
2023-03-04T03:50:13.190Z,49.92
2023-03-04T03:52:38.954Z,53.67
2023-03-04T03:55:03.506Z,50.75
2023-03-04T03:57:27.984Z,52.70
2023-03-04T03:59:52.335Z,53.65
2023-03-04T04:02:16.856Z,52.65
2023-03-04T04:04:42.368Z,56.17
2023-03-04T04:07:06.812Z,50.85
2023-03-04T04:09:32.518Z,51.92
2023-03-04T04:11:57.601Z,51.13
2023-03-04T04:14:21.932Z,51.03
2023-03-04T04:16:46.389Z,49.38
2023-03-04T04:19:16.691Z,51.35
2023-03-04T04:21:41.069Z,51.63
2023-03-04T04:24:05.929Z,49.58
2023-03-04T04:26:31.805Z,50.65
2023-03-04T04:28:56.206Z,48.45
2023-03-04T04:31:20.602Z,48.97
2023-03-04T04:33:47.447Z,48.00
2023-03-04T04:36:18.193Z,50.10
2023-03-04T04:38:42.581Z,47.83
2023-03-04T04:41:07.750Z,49.47
2023-03-04T04:43:33.607Z,50.55
2023-03-04T04:46:00.329Z,50.13
2023-03-04T04:48:24.678Z,47.15
2023-03-04T04:50:54.617Z,50.85
2023-03-04T04:53:18.996Z,49.17
2023-03-04T04:55:43.345Z,48.47
2023-03-04T04:58:08.262Z,49.47
2023-03-04T05:00:33.960Z,49.97
2023-03-04T05:02:58.454Z,50.40
2023-03-04T05:05:22.760Z,50.25
2023-03-04T05:07:48.626Z,50.95
2023-03-04T05:10:13.304Z,50.38
2023-03-04T05:12:37.707Z,51.45
2023-03-04T05:15:02.034Z,50.72
2023-03-04T05:17:28.960Z,51.55
2023-03-04T05:19:53.622Z,49.33
2023-03-04T05:22:18.039Z,52.33
2023-03-04T05:24:42.499Z,63.00
2023-03-04T05:27:07.243Z,55.05
2023-03-04T05:29:31.653Z,56.33
2023-03-04T05:31:56.121Z,49.95
2023-03-04T05:34:22.175Z,51.75
2023-03-04T05:36:46.655Z,52.15
2023-03-04T05:39:12.484Z,52.05
2023-03-04T05:41:36.978Z,48.15
2023-03-04T05:44:01.399Z,47.00
2023-03-04T05:46:26.375Z,41.33
2023-03-04T05:48:51.153Z,37.55
2023-03-04T05:51:17.006Z,39.45
2023-03-04T05:53:42.916Z,38.08
2023-03-04T05:56:11.460Z,35.67
2023-03-04T05:58:35.838Z,33.33
2023-03-04T06:01:01.877Z,37.33
2023-03-04T06:03:26.216Z,36.20
2023-03-04T06:05:50.963Z,36.53
2023-03-04T06:08:16.913Z,35.30
2023-03-04T06:10:42.715Z,37.08
2023-03-04T06:13:07.308Z,36.35
2023-03-04T06:15:32.281Z,36.38
2023-03-04T06:17:56.561Z,33.95
2023-03-04T06:20:21.143Z,34.63
2023-03-04T06:22:45.528Z,35.75
2023-03-04T06:25:12.234Z,34.25
2023-03-04T06:27:36.666Z,33.63
2023-03-04T06:30:03.177Z,34.55
2023-03-04T06:32:28.045Z,34.85
2023-03-04T06:34:52.516Z,34.97
2023-03-04T06:37:16.933Z,35.08
2023-03-04T06:39:41.385Z,34.40
2023-03-04T06:42:07.232Z,38.10
2023-03-04T06:44:32.004Z,35.20
2023-03-04T06:46:56.512Z,35.55
2023-03-04T06:49:20.867Z,34.22
2023-03-04T06:51:46.361Z,35.03
2023-03-04T06:54:11.174Z,35.45
2023-03-04T06:56:35.973Z,34.38
2023-03-04T06:59:01.855Z,35.55
2023-03-04T07:01:29.682Z,35.65
2023-03-04T07:03:54.897Z,33.60
2023-03-04T07:06:22.193Z,34.25
2023-03-04T07:08:46.982Z,35.03
2023-03-04T07:11:12.093Z,36.72
2023-03-04T07:13:38.450Z,34.95
2023-03-04T07:16:04.453Z,35.25
2023-03-04T07:18:29.068Z,34.25
2023-03-04T07:20:54.040Z,34.75
2023-03-04T07:23:18.297Z,35.88
2023-03-04T07:25:43.006Z,35.55
2023-03-04T07:28:07.300Z,37.22
2023-03-04T07:30:31.716Z,38.70
2023-03-04T07:32:58.995Z,39.63
2023-03-04T07:35:23.420Z,38.97
2023-03-04T07:37:47.971Z,40.25
2023-03-04T07:40:13.575Z,40.00
2023-03-04T07:42:38.435Z,38.67
2023-03-04T07:45:09.931Z,40.03
2023-03-04T07:47:34.381Z,39.58
2023-03-04T07:50:00.174Z,40.65
2023-03-04T07:52:24.683Z,40.03
2023-03-04T07:54:50.248Z,39.60
2023-03-04T07:57:15.443Z,40.10
2023-03-04T07:59:39.934Z,42.20
2023-03-04T08:02:04.461Z,41.28
2023-03-04T08:04:28.970Z,40.78
2023-03-04T08:06:54.828Z,44.25
2023-03-04T08:09:19.574Z,46.55
2023-03-04T08:11:44.656Z,46.38
2023-03-04T08:14:09.355Z,46.80
2023-03-04T08:16:34.284Z,48.05
2023-03-04T08:19:02.022Z,48.55
2023-03-04T08:21:28.193Z,48.03
2023-03-04T08:23:54.412Z,52.40
2023-03-04T08:26:22.159Z,51.55
2023-03-04T08:28:47.153Z,52.13
2023-03-04T08:31:11.747Z,56.40
2023-03-04T08:33:36.388Z,54.72
2023-03-04T08:36:01.667Z,58.55
2023-03-04T08:38:27.962Z,57.20
2023-03-04T08:40:58.153Z,57.65
2023-03-04T08:43:22.668Z,57.42
2023-03-04T08:45:47.025Z,60.15
2023-03-04T08:48:12.363Z,59.95
2023-03-04T08:50:37.544Z,60.63
2023-03-04T08:53:01.970Z,61.97
2023-03-04T08:55:26.534Z,63.55
2023-03-04T08:57:52.359Z,60.72
2023-03-04T09:00:17.810Z,60.33
2023-03-04T09:02:42.211Z,59.92
2023-03-04T09:05:08.062Z,60.53
2023-03-04T09:07:32.562Z,62.97
2023-03-04T09:09:56.910Z,62.92
2023-03-04T09:12:21.475Z,61.03
2023-03-04T09:15:10.677Z,60.88
2023-03-04T09:17:38.334Z,60.45
2023-03-04T09:20:19.193Z,58.97
2023-03-04T09:22:52.483Z,58.33
2023-03-04T09:25:37.528Z,53.28
2023-03-04T09:28:09.455Z,53.75
2023-03-04T09:30:38.808Z,50.45
2023-03-04T09:33:22.958Z,42.92
2023-03-04T09:36:31.629Z,40.00
2023-03-04T09:39:09.869Z,40.00
2023-03-04T09:50:08.600Z,41.70
2023-03-04T09:57:42.207Z,37.30
2023-03-04T10:01:24.877Z,34.10
2023-03-04T10:05:34.868Z,38.10
2023-03-04T10:09:16.537Z,34.33
2023-03-04T10:12:47.552Z,35.83
2023-03-04T10:23:59.863Z,33.05
2023-03-04T10:26:38.580Z,32.60
2023-03-04T10:29:49.040Z,30.30
2023-03-04T10:32:47.440Z,30.20
2023-03-04T10:35:27.791Z,29.88
2023-03-04T10:42:32.611Z,26.50
2023-03-04T10:45:50.735Z,27.75
2023-03-04T10:49:13.460Z,27.92
2023-03-04T10:52:46.353Z,27.90
2023-03-04T11:05:50.684Z,30.77
2023-03-04T11:22:17.731Z,28.67
2023-03-04T11:25:32.640Z,29.60
2023-03-04T11:29:59.672Z,30.00
2023-03-04T11:37:31.525Z,28.90
2023-03-04T11:41:07.220Z,30.17
2023-03-04T11:44:00.814Z,30.33
2023-03-04T11:47:45.348Z,29.27
2023-03-04T11:51:35.468Z,30.25
2023-03-04T11:55:02.832Z,30.17
2023-03-04T12:01:58.683Z,32.83
2023-03-04T12:09:59.655Z,32.80
2023-03-04T12:14:10.830Z,33.38
2023-03-04T12:27:36.841Z,39.42
2023-03-04T12:39:28.938Z,41.20
2023-03-04T12:43:38.602Z,42.40
2023-03-04T12:47:12.555Z,41.65
2023-03-04T12:50:36.047Z,42.95
2023-03-04T12:53:21.245Z,43.83
2023-03-04T12:55:51.976Z,42.53
2023-03-04T12:58:53.929Z,42.47
2023-03-04T13:02:06.285Z,37.13
2023-03-04T13:06:29.007Z,37.13
2023-03-04T13:10:11.936Z,37.90
2023-03-04T13:13:32.048Z,38.05
2023-03-04T13:17:13.253Z,37.45
2023-03-04T13:19:55.785Z,38.15
2023-03-04T13:27:02.627Z,35.83
2023-03-04T13:34:43.741Z,33.72
2023-03-04T13:43:02.629Z,34.35
2023-03-04T13:54:44.073Z,32.05
2023-03-04T14:02:40.860Z,32.53
2023-03-04T14:09:07.447Z,39.70
2023-03-04T14:16:54.951Z,38.03
2023-03-04T14:21:04.110Z,38.85
2023-03-04T14:24:54.675Z,42.10
2023-03-04T14:39:16.939Z,43.50
2023-03-04T14:42:45.395Z,43.83
2023-03-04T14:53:50.833Z,44.50
2023-03-04T15:01:05.140Z,43.05
2023-03-04T15:04:20.116Z,42.80
2023-03-04T15:08:18.158Z,42.00
2023-03-04T15:12:26.440Z,38.72
2023-03-04T15:15:56.396Z,40.15
2023-03-04T15:19:14.763Z,37.35
2023-03-04T15:22:58.636Z,36.83
2023-03-04T15:26:27.288Z,38.97
2023-03-04T15:30:24.853Z,39.40
2023-03-04T15:38:48.908Z,40.28
2023-03-04T16:04:18.827Z,35.95
2023-03-04T16:12:59.851Z,37.45
2023-03-04T16:28:54.292Z,33.58
2023-03-04T16:31:21.139Z,32.13
2023-03-04T16:33:45.897Z,32.30
2023-03-04T16:36:15.892Z,31.90
2023-03-04T16:41:04.786Z,32.28
2023-03-04T16:43:29.993Z,32.47
2023-03-04T16:45:56.204Z,31.33
2023-03-04T16:48:21.326Z,32.25
2023-03-04T16:50:46.437Z,30.58
2023-03-04T16:58:15.766Z,31.20
2023-03-04T17:00:42.820Z,33.75
2023-03-04T17:03:11.835Z,33.40
2023-03-04T17:05:36.369Z,31.93
2023-03-04T17:08:00.919Z,33.50
2023-03-04T17:10:26.148Z,32.70
2023-03-04T17:12:51.047Z,32.53
2023-03-04T17:15:16.219Z,34.15
2023-03-04T17:17:41.402Z,35.42
2023-03-04T17:20:08.900Z,35.45
2023-03-04T17:22:34.416Z,35.25
2023-03-04T17:24:59.141Z,33.55
2023-03-04T17:27:23.585Z,36.90
2023-03-04T17:29:49.098Z,34.33
2023-03-04T17:32:13.482Z,33.38
2023-03-04T17:34:37.980Z,35.35
2023-03-04T17:37:03.855Z,35.28
2023-03-04T17:39:28.646Z,35.38
2023-03-04T17:41:53.713Z,36.65
2023-03-04T17:44:18.685Z,37.83
2023-03-04T17:46:43.284Z,33.67
2023-03-04T17:49:08.865Z,36.63
2023-03-04T17:51:35.258Z,35.60
2023-03-04T17:54:01.566Z,38.85
2023-03-04T17:56:30.137Z,40.65
2023-03-04T17:58:54.722Z,39.00
2023-03-04T18:01:21.423Z,38.90
2023-03-04T18:03:46.735Z,40.00
2023-03-04T18:06:11.452Z,37.65
2023-03-04T18:08:36.064Z,39.45
2023-03-04T18:11:02.365Z,40.78
2023-03-04T18:13:27.510Z,38.90
2023-03-04T18:15:52.026Z,40.58
2023-03-04T18:18:19.283Z,40.20
2023-03-04T18:20:43.952Z,36.70
2023-03-04T18:23:09.168Z,40.05
2023-03-04T18:25:33.640Z,39.00
2023-03-04T18:27:59.966Z,37.50
2023-03-04T18:30:27.937Z,36.33
2023-03-04T18:32:53.513Z,38.47
2023-03-04T18:35:19.677Z,36.78
2023-03-04T18:37:45.384Z,35.90
2023-03-04T18:40:11.187Z,34.85
2023-03-04T18:42:37.579Z,35.33
2023-03-04T18:45:04.178Z,36.15
2023-03-04T18:47:28.876Z,34.42
2023-03-04T18:49:54.073Z,34.53
2023-03-04T18:52:20.239Z,35.75
2023-03-04T18:54:44.999Z,34.05
2023-03-04T18:57:12.279Z,33.88
2023-03-04T18:59:41.589Z,32.92
2023-03-04T19:02:13.324Z,33.90
2023-03-04T19:04:38.549Z,33.50
2023-03-04T19:07:03.347Z,33.28
2023-03-04T19:09:27.959Z,31.83
2023-03-04T19:11:52.356Z,33.17
2023-03-04T19:14:16.946Z,32.08
2023-03-04T19:16:41.684Z,32.42
2023-03-04T19:19:08.736Z,33.50
2023-03-04T19:21:33.271Z,34.05
2023-03-04T19:23:57.882Z,30.30
2023-03-04T19:26:22.299Z,33.22
2023-03-04T19:28:46.872Z,32.30
2023-03-04T19:31:12.336Z,31.52
2023-03-04T19:33:37.602Z,33.20
2023-03-04T19:36:05.119Z,33.47
2023-03-04T19:38:29.663Z,31.35
2023-03-04T19:40:54.500Z,34.53
2023-03-04T19:43:19.355Z,33.33
2023-03-04T19:45:43.910Z,35.17
2023-03-04T19:48:10.462Z,34.83
2023-03-04T19:50:35.161Z,35.88
2023-03-04T19:53:02.759Z,36.47
2023-03-04T19:55:27.256Z,34.65
2023-03-04T19:57:55.533Z,35.50
2023-03-04T20:00:23.344Z,35.70
2023-03-04T20:02:49.231Z,33.60
2023-03-04T20:05:13.656Z,35.13
2023-03-04T20:07:38.176Z,34.40
2023-03-04T20:10:04.624Z,33.20
2023-03-04T20:12:31.366Z,32.95
2023-03-04T20:14:55.938Z,31.67
2023-03-04T20:17:20.681Z,32.67
2023-03-04T20:19:45.300Z,33.72
2023-03-04T20:22:10.661Z,30.80
2023-03-04T20:24:35.137Z,34.13
2023-03-04T20:27:01.043Z,33.70
2023-03-04T20:29:30.113Z,31.27
2023-03-04T20:31:55.111Z,33.50
2023-03-04T20:34:19.517Z,34.42
2023-03-04T20:36:44.051Z,33.38
2023-03-04T20:39:26.959Z,34.00
2023-03-04T20:41:52.828Z,32.95
2023-03-04T20:44:18.838Z,33.95
2023-03-04T20:46:46.189Z,33.25
2023-03-04T20:49:12.606Z,34.03
2023-03-04T20:51:38.091Z,32.90
2023-03-04T20:54:03.915Z,33.53
2023-03-04T20:56:29.592Z,34.17
2023-03-04T20:58:55.951Z,31.80
2023-03-04T21:01:22.769Z,32.90
2023-03-04T21:03:47.853Z,31.25
2023-03-04T21:06:14.436Z,32.78
2023-03-04T21:08:38.834Z,32.92
2023-03-04T21:11:03.630Z,31.27
2023-03-04T21:13:30.835Z,28.98
2023-03-04T21:15:55.373Z,31.35
2023-03-04T21:18:21.468Z,29.48
2023-03-04T21:20:48.514Z,31.13
2023-03-04T21:23:13.190Z,30.83
2023-03-04T21:25:37.672Z,30.00
2023-03-04T21:28:02.430Z,29.10
2023-03-04T21:30:26.977Z,30.60
2023-03-04T21:32:52.665Z,29.55
2023-03-04T21:35:19.543Z,30.67
2023-03-04T21:37:44.106Z,30.45
2023-03-04T21:40:09.669Z,30.00
2023-03-04T21:42:34.160Z,31.30
2023-03-04T21:44:58.779Z,29.33
2023-03-04T21:47:23.827Z,31.23
2023-03-04T21:49:48.621Z,30.15
2023-03-04T21:52:14.842Z,29.00
2023-03-04T21:54:39.356Z,29.50
2023-03-04T21:57:04.030Z,29.02
2023-03-04T21:59:28.609Z,29.17
2023-03-04T22:01:55.232Z,30.15
2023-03-04T22:04:20.368Z,29.13
2023-03-04T22:06:44.792Z,32.35
2023-03-04T22:09:12.246Z,30.70
2023-03-04T22:11:36.857Z,31.30
2023-03-04T22:14:02.887Z,31.85
2023-03-04T22:16:27.807Z,31.77
2023-03-04T22:18:52.360Z,29.58
2023-03-04T22:21:19.288Z,31.23
2023-03-04T22:23:43.976Z,29.38
2023-03-04T22:26:13.098Z,30.63
2023-03-04T22:28:37.758Z,29.87
2023-03-04T22:31:03.007Z,27.67
2023-03-04T22:33:27.590Z,30.23
2023-03-04T22:35:53.574Z,29.13
2023-03-04T22:38:18.385Z,30.38
2023-03-04T22:40:42.829Z,28.77
2023-03-04T22:43:09.468Z,29.10
2023-03-04T22:45:33.991Z,28.90
2023-03-04T22:47:58.655Z,30.08
2023-03-04T22:50:23.718Z,28.85
2023-03-04T22:52:48.870Z,27.88
2023-03-04T22:55:14.450Z,27.20
2023-03-04T22:57:38.893Z,27.30
2023-03-04T23:00:07.784Z,27.85
2023-03-04T23:02:32.210Z,26.35
2023-03-04T23:04:56.678Z,28.55
2023-03-04T23:07:22.082Z,24.98
2023-03-04T23:09:46.601Z,25.80
2023-03-04T23:12:11.373Z,27.80
2023-03-04T23:14:35.862Z,25.70
2023-03-04T23:17:01.952Z,24.88
2023-03-04T23:19:28.907Z,26.00
2023-03-04T23:21:53.474Z,27.25
2023-03-04T23:24:19.646Z,26.55
2023-03-04T23:26:45.371Z,26.10
2023-03-04T23:29:12.607Z,25.40
2023-03-04T23:31:37.507Z,27.13
2023-03-04T23:34:05.034Z,24.92
2023-03-04T23:36:33.051Z,25.10
2023-03-04T23:38:57.588Z,27.17
2023-03-04T23:41:24.269Z,27.50
2023-03-04T23:43:51.339Z,26.17
2023-03-04T23:46:16.221Z,24.77
2023-03-04T23:48:46.316Z,26.05
2023-03-04T23:51:12.445Z,25.08
2023-03-04T23:53:39.100Z,26.55
2023-03-04T23:56:03.572Z,23.98
2023-03-04T23:58:28.298Z,26.00
